Terminal Aerodrome Forecast
Issued by NWS Detroit/Pontiac, MI

Home | Current Version | Previous Version | Text Only | Print | Product List | Glossary On
Versions: 1 2 3 4 5 6 7 8 9 10 11 12 13 14 15 16 17 18 19 20 21
000
FTUS43 KDTX 142300
TAFFNT
TAF
KFNT 142320Z 1500/1524 22007KT P6SM SCT050 BKN200
     FM151600 23010KT 6SM -SHRA OVC070
     FM152200 25008KT 5SM -SHRA BR BKN030 OVC060=

USA.gov is the U.S. government's official web portal to all federal, state and local government web resources and services.